createdAt,value
2022-11-28T00:00:57.919Z,91.46
2022-11-28T00:02:01.742Z,91.55
2022-11-28T00:03:04.846Z,91.84
2022-11-28T00:04:09.139Z,92.07
2022-11-28T00:05:12.783Z,92.25
2022-11-28T00:06:17.065Z,92.28
2022-11-28T00:07:20.026Z,92.36
2022-11-28T00:08:24.363Z,92.61
2022-11-28T00:09:27.134Z,92.74
2022-11-28T00:10:31.004Z,92.82
2022-11-28T00:11:36.386Z,93.19
2022-11-28T00:12:39.130Z,93.23
2022-11-28T00:13:43.771Z,93.48
2022-11-28T00:14:46.416Z,93.82
2022-11-28T00:15:57.157Z,93.81
2022-11-28T00:17:00.950Z,94.04
2022-11-28T00:18:03.806Z,93.95
2022-11-28T00:19:08.245Z,94.26
2022-11-28T00:20:11.359Z,94.46
2022-11-28T00:21:16.228Z,94.56
2022-11-28T00:22:18.887Z,94.73
2022-11-28T00:23:22.577Z,94.95
2022-11-28T00:24:26.667Z,95.05
2022-11-28T00:25:29.337Z,95.15
2022-11-28T00:26:36.684Z,95.14
2022-11-28T00:27:39.413Z,95.17
2022-11-28T00:28:43.799Z,95.19
2022-11-28T00:29:47.511Z,95.32
2022-11-28T00:30:50.183Z,94.99
2022-11-28T00:31:54.023Z,94.96
2022-11-28T00:32:56.748Z,95.17
2022-11-28T00:34:01.914Z,95.34
2022-11-28T00:35:05.217Z,95.54
2022-11-28T00:36:09.514Z,95.66
2022-11-28T00:37:13.270Z,95.62
2022-11-28T00:38:16.078Z,95.81
2022-11-28T00:39:20.112Z,95.92
2022-11-28T00:40:23.367Z,96.24
2022-11-28T00:41:28.820Z,96.45
2022-11-28T00:42:32.948Z,96.08
2022-11-28T00:43:37.260Z,96.05
2022-11-28T00:44:40.070Z,96.07
2022-11-28T00:45:43.938Z,95.82
2022-11-28T00:46:47.658Z,96.25
2022-11-28T00:47:50.403Z,96.25
2022-11-28T00:48:54.530Z,96.22
2022-11-28T00:49:57.131Z,96.26
2022-11-28T00:51:07.946Z,96.22
2022-11-28T00:52:11.692Z,96.31
2022-11-28T00:53:14.478Z,96.07
2022-11-28T00:54:18.188Z,96.04
2022-11-28T00:55:20.798Z,95.91
2022-11-28T00:56:26.259Z,96.36
2022-11-28T00:57:28.909Z,96.40
2022-11-28T00:58:34.082Z,95.91
2022-11-28T00:59:36.841Z,96.08
2022-11-28T01:00:40.604Z,95.91
2022-11-28T01:01:45.375Z,95.89
2022-11-28T01:02:48.324Z,95.96
2022-11-28T01:03:53.070Z,95.87
2022-11-28T01:04:55.727Z,96.14
2022-11-28T01:05:59.561Z,95.68
2022-11-28T01:07:02.778Z,95.77
2022-11-28T01:08:06.577Z,95.66
2022-11-28T01:09:13.446Z,95.75
2022-11-28T01:10:16.311Z,96.01
2022-11-28T01:11:20.759Z,95.75
2022-11-28T01:12:23.408Z,96.08
2022-11-28T01:13:27.367Z,96.13
2022-11-28T01:14:31.468Z,95.96
2022-11-28T01:15:35.172Z,96.02
2022-11-28T01:16:38.481Z,96.13
2022-11-28T01:17:42.197Z,95.83
2022-11-28T01:18:44.859Z,95.95
2022-11-28T01:19:48.604Z,95.86
2022-11-28T01:20:51.281Z,95.63
2022-11-28T01:21:55.000Z,95.61
2022-11-28T01:22:57.658Z,95.80
2022-11-28T01:24:01.519Z,95.64
2022-11-28T01:25:04.780Z,95.28
2022-11-28T01:26:10.340Z,95.27
2022-11-28T01:27:12.939Z,95.10
2022-11-28T01:28:16.750Z,95.33
2022-11-28T01:29:19.347Z,95.28
2022-11-28T01:30:24.589Z,95.08
2022-11-28T01:31:29.382Z,95.12
2022-11-28T01:32:33.080Z,95.32
2022-11-28T01:33:36.095Z,94.81
2022-11-28T01:34:39.954Z,94.95
2022-11-28T01:35:42.840Z,94.72
2022-11-28T01:36:46.538Z,95.12
2022-11-28T01:37:49.225Z,94.94
2022-11-28T01:38:53.427Z,95.08
2022-11-28T01:39:57.218Z,95.03
2022-11-28T01:40:59.978Z,95.56
2022-11-28T01:42:03.729Z,95.45
2022-11-28T01:43:06.804Z,95.58
2022-11-28T01:44:49.059Z,95.31
2022-11-28T01:45:54.749Z,95.11
2022-11-28T01:46:57.498Z,95.22
2022-11-28T01:48:03.388Z,95.49
2022-11-28T01:49:13.750Z,95.26
2022-11-28T01:50:17.939Z,95.15
2022-11-28T01:51:21.209Z,95.21
2022-11-28T01:52:25.341Z,95.56
2022-11-28T01:53:29.961Z,95.74
2022-11-28T01:54:34.978Z,95.80
2022-11-28T01:55:41.521Z,95.40
2022-11-28T01:56:51.325Z,95.52
2022-11-28T01:57:55.849Z,95.30
2022-11-28T01:59:01.416Z,95.57
2022-11-28T02:00:09.388Z,96.04
2022-11-28T02:01:20.577Z,96.25
2022-11-28T02:02:27.581Z,96.58
2022-11-28T02:03:36.241Z,96.39
2022-11-28T02:04:39.075Z,96.37
2022-11-28T02:05:42.930Z,96.43
2022-11-28T02:06:45.827Z,96.25
2022-11-28T02:07:50.416Z,96.44
2022-11-28T02:08:53.887Z,96.04
2022-11-28T02:09:58.168Z,96.69
2022-11-28T02:11:32.616Z,96.69
2022-11-28T02:12:46.866Z,96.69
2022-11-28T02:13:56.518Z,96.89
2022-11-28T02:15:13.694Z,96.81
2022-11-28T02:16:32.737Z,96.53
2022-11-28T02:17:45.796Z,96.48
2022-11-28T02:18:58.957Z,96.74
2022-11-28T02:20:26.678Z,96.91
2022-11-28T02:21:40.341Z,96.88
2022-11-28T02:22:46.258Z,96.97
2022-11-28T02:24:12.788Z,96.88
2022-11-28T02:25:55.526Z,96.88
2022-11-28T02:27:09.818Z,96.39
2022-11-28T02:28:46.314Z,96.78
2022-11-28T02:30:13.223Z,97.05
2022-11-28T02:31:37.409Z,97.10
2022-11-28T02:33:07.624Z,97.75
2022-11-28T02:34:13.647Z,97.83
2022-11-28T02:35:22.069Z,97.87
2022-11-28T02:36:29.381Z,97.73
2022-11-28T02:37:38.018Z,97.83
2022-11-28T02:38:56.175Z,97.42
2022-11-28T02:40:07.091Z,97.06
2022-11-28T02:41:18.749Z,97.35
2022-11-28T02:42:25.704Z,97.43
2022-11-28T02:43:33.227Z,97.37
2022-11-28T02:44:45.359Z,97.79
2022-11-28T02:45:54.724Z,97.27
2022-11-28T02:47:02.504Z,97.31
2022-11-28T02:48:10.817Z,97.45
2022-11-28T02:49:16.340Z,97.77
2022-11-28T02:50:24.142Z,97.69
2022-11-28T02:51:31.379Z,98.00
2022-11-28T02:52:37.411Z,97.37
2022-11-28T02:53:42.468Z,97.59
2022-11-28T02:54:47.081Z,97.46
2022-11-28T02:55:50.404Z,97.61
2022-11-28T02:56:55.678Z,97.52
2022-11-28T02:57:58.326Z,97.76
2022-11-28T02:59:02.130Z,97.51
2022-11-28T03:00:27.203Z,97.93
2022-11-28T03:01:33.913Z,97.76
2022-11-28T03:02:36.816Z,97.43
2022-11-28T03:04:00.507Z,97.54
2022-11-28T03:05:08.626Z,97.40
2022-11-28T03:06:20.447Z,97.51
2022-11-28T03:07:31.646Z,97.31
2022-11-28T03:08:43.684Z,97.37
2022-11-28T03:09:57.029Z,97.23
2022-11-28T03:11:05.878Z,96.87
2022-11-28T03:12:17.509Z,97.29
2022-11-28T03:13:24.679Z,97.40
2022-11-28T03:14:36.964Z,97.40
2022-11-28T03:15:46.608Z,97.12
2022-11-28T03:16:52.238Z,97.23
2022-11-28T03:18:04.336Z,97.51
2022-11-28T03:19:12.760Z,97.33
2022-11-28T03:20:21.826Z,97.49
2022-11-28T03:21:27.636Z,97.45
2022-11-28T03:22:37.251Z,97.27
2022-11-28T03:23:43.783Z,97.12
2022-11-28T03:24:50.120Z,96.90
2022-11-28T03:25:57.817Z,97.30
2022-11-28T03:27:06.449Z,97.34
2022-11-28T03:28:13.018Z,97.29
2022-11-28T03:29:20.386Z,96.68
2022-11-28T03:30:28.927Z,96.83
2022-11-28T03:31:36.163Z,97.10
2022-11-28T03:32:40.057Z,96.79
2022-11-28T03:33:48.228Z,96.54
2022-11-28T03:34:56.838Z,96.74
2022-11-28T03:36:04.132Z,96.52
2022-11-28T03:37:09.729Z,96.41
2022-11-28T03:38:18.357Z,96.40
2022-11-28T03:39:23.858Z,96.55
2022-11-28T03:40:30.290Z,96.53
2022-11-28T03:41:34.919Z,96.63
2022-11-28T03:42:42.729Z,96.62
2022-11-28T03:43:48.170Z,96.60
2022-11-28T03:45:00.620Z,96.53
2022-11-28T03:46:05.887Z,96.51
2022-11-28T03:47:10.209Z,96.56
2022-11-28T03:48:16.138Z,96.78
2022-11-28T03:49:22.990Z,96.15
2022-11-28T03:50:30.369Z,96.60
2022-11-28T03:51:35.754Z,95.99
2022-11-28T03:52:42.078Z,96.03
2022-11-28T03:53:50.826Z,96.40
2022-11-28T03:54:58.291Z,96.23
2022-11-28T03:56:04.777Z,96.35
2022-11-28T03:57:13.029Z,96.55
2022-11-28T03:58:23.520Z,96.47
2022-11-28T03:59:30.517Z,96.00
2022-11-28T04:00:34.556Z,95.94
2022-11-28T04:01:45.527Z,96.26
2022-11-28T04:02:55.598Z,96.01
2022-11-28T04:04:09.250Z,95.80
2022-11-28T04:05:19.512Z,95.66
2022-11-28T04:06:27.288Z,96.08
2022-11-28T04:07:35.233Z,96.21
2022-11-28T04:08:42.897Z,95.57
2022-11-28T04:09:48.399Z,95.94
2022-11-28T04:10:56.318Z,95.62
2022-11-28T04:12:04.218Z,95.28
2022-11-28T04:13:13.658Z,95.26
2022-11-28T04:14:20.859Z,95.37
2022-11-28T04:15:31.015Z,95.35
2022-11-28T04:16:36.992Z,95.73
2022-11-28T04:17:47.346Z,95.72
2022-11-28T04:18:53.117Z,95.87
2022-11-28T04:20:02.699Z,95.80
2022-11-28T04:21:11.007Z,95.51
2022-11-28T04:22:19.708Z,95.46
2022-11-28T04:23:22.657Z,95.15
2022-11-28T04:24:28.896Z,94.92
2022-11-28T04:25:34.891Z,95.26
2022-11-28T04:26:42.648Z,95.01
2022-11-28T04:27:49.476Z,95.28
2022-11-28T04:28:54.523Z,95.30
2022-11-28T04:29:59.540Z,95.49
2022-11-28T04:31:04.500Z,95.39
2022-11-28T04:32:08.888Z,95.15
2022-11-28T04:33:13.358Z,95.15
2022-11-28T04:34:19.307Z,95.52
2022-11-28T04:35:27.654Z,95.13
2022-11-28T04:36:30.926Z,95.47
2022-11-28T04:37:38.692Z,95.28
2022-11-28T04:38:41.820Z,95.08
2022-11-28T04:39:48.599Z,95.00
2022-11-28T04:40:54.697Z,95.23
2022-11-28T04:42:01.690Z,94.75
2022-11-28T04:43:07.086Z,95.16
2022-11-28T04:44:13.858Z,94.73
2022-11-28T04:45:19.561Z,94.67
2022-11-28T04:46:27.705Z,95.09
2022-11-28T04:47:31.536Z,94.61
2022-11-28T04:48:34.717Z,94.60
2022-11-28T04:49:39.109Z,94.98
2022-11-28T04:50:54.695Z,94.58
2022-11-28T04:52:04.644Z,94.83
2022-11-28T04:53:12.828Z,95.11
2022-11-28T04:54:19.369Z,94.33
2022-11-28T04:55:30.567Z,94.45
2022-11-28T04:56:38.801Z,94.50
2022-11-28T04:57:44.589Z,94.51
2022-11-28T04:58:49.000Z,94.72
2022-11-28T04:59:53.298Z,94.53
2022-11-28T05:00:56.642Z,94.52
2022-11-28T05:02:04.807Z,94.42
2022-11-28T05:03:08.558Z,94.09
2022-11-28T05:04:12.650Z,94.41
2022-11-28T05:05:18.757Z,94.01
2022-11-28T05:06:29.479Z,94.22
2022-11-28T05:07:33.221Z,93.87
2022-11-28T05:08:38.540Z,94.27
2022-11-28T05:09:41.260Z,93.69
2022-11-28T05:10:44.951Z,93.48
2022-11-28T05:11:47.630Z,93.50
2022-11-28T05:12:51.339Z,93.67
2022-11-28T05:13:54.299Z,93.72
2022-11-28T05:14:58.000Z,93.41
2022-11-28T05:16:00.975Z,93.34
2022-11-28T05:17:04.721Z,93.51
2022-11-28T05:18:07.409Z,93.15
2022-11-28T05:19:11.404Z,93.21
2022-11-28T05:20:14.622Z,93.16
2022-11-28T05:21:18.280Z,93.26
2022-11-28T05:22:20.917Z,93.33
2022-11-28T05:23:24.722Z,92.91
2022-11-28T05:24:40.378Z,93.08
2022-11-28T05:25:44.118Z,93.19
2022-11-28T05:26:46.779Z,92.80
2022-11-28T05:27:50.643Z,92.87
2022-11-28T05:28:53.840Z,93.10
2022-11-28T05:29:57.539Z,92.61
2022-11-28T05:31:00.796Z,92.49
2022-11-28T05:32:04.857Z,93.00
2022-11-28T05:33:07.598Z,92.47
2022-11-28T05:34:11.296Z,92.39
2022-11-28T05:35:14.149Z,92.63
2022-11-28T05:36:18.887Z,92.13
2022-11-28T05:37:21.479Z,92.19
2022-11-28T05:38:25.238Z,92.53
2022-11-28T05:39:29.429Z,92.30
2022-11-28T05:40:33.180Z,92.11
2022-11-28T05:41:36.220Z,92.14
2022-11-28T05:42:39.986Z,92.42
2022-11-28T05:43:42.699Z,91.91
2022-11-28T05:44:46.320Z,91.83
2022-11-28T05:45:50.054Z,92.14
2022-11-28T05:46:53.148Z,92.40
2022-11-28T05:47:56.891Z,91.93
2022-11-28T05:48:59.619Z,91.73
2022-11-28T05:50:03.290Z,91.97
2022-11-28T05:51:06.630Z,91.66
2022-11-28T05:52:10.520Z,91.87
2022-11-28T05:53:13.592Z,91.88
2022-11-28T05:54:17.357Z,91.67
2022-11-28T05:55:21.417Z,91.70
2022-11-28T05:56:25.239Z,91.83
2022-11-28T05:57:30.173Z,91.92
2022-11-28T05:58:33.906Z,91.78
2022-11-28T05:59:36.721Z,91.65
2022-11-28T06:00:40.996Z,91.82
2022-11-28T06:01:43.857Z,91.79
2022-11-28T06:02:47.647Z,91.62
2022-11-28T06:03:50.393Z,91.84
2022-11-28T06:04:54.256Z,91.59
2022-11-28T06:05:56.988Z,91.98
2022-11-28T06:07:00.677Z,91.69
2022-11-28T06:08:03.379Z,91.95
2022-11-28T06:09:07.484Z,92.13
2022-11-28T06:10:10.647Z,91.96
2022-11-28T06:11:16.372Z,92.02
2022-11-28T06:12:20.068Z,91.83
2022-11-28T06:13:22.717Z,92.03
2022-11-28T06:14:26.392Z,91.84
2022-11-28T06:15:32.649Z,92.00
2022-11-28T06:16:39.280Z,91.75
2022-11-28T06:17:42.281Z,91.81
2022-11-28T06:18:46.285Z,92.12
2022-11-28T06:19:49.076Z,91.87
2022-11-28T06:20:52.907Z,92.34
2022-11-28T06:21:57.176Z,91.70
2022-11-28T06:22:59.818Z,92.29
2022-11-28T06:24:03.489Z,91.86
2022-11-28T06:25:06.568Z,91.64
2022-11-28T06:26:12.738Z,91.98
2022-11-28T06:27:16.829Z,91.66
2022-11-28T06:28:20.538Z,91.67
2022-11-28T06:29:24.207Z,91.67
2022-11-28T06:30:27.980Z,91.41
2022-11-28T06:31:31.973Z,91.88
2022-11-28T06:32:34.730Z,91.98
2022-11-28T06:33:38.737Z,92.07
2022-11-28T06:34:42.382Z,92.42
2022-11-28T06:35:45.118Z,92.14
2022-11-28T06:36:48.818Z,92.50
2022-11-28T06:37:51.518Z,92.58
2022-11-28T06:38:55.339Z,92.61
2022-11-28T06:39:59.337Z,92.51
2022-11-28T06:41:03.203Z,92.47
2022-11-28T06:42:07.400Z,92.69
2022-11-28T06:43:11.400Z,92.77
2022-11-28T06:44:16.054Z,92.76
2022-11-28T06:45:19.190Z,92.41
2022-11-28T06:46:23.331Z,92.47
2022-11-28T06:47:26.017Z,92.31
2022-11-28T06:48:29.987Z,92.30
2022-11-28T06:49:32.739Z,92.02
2022-11-28T06:50:36.570Z,92.11
2022-11-28T06:51:39.346Z,92.49
2022-11-28T06:52:43.058Z,92.23
2022-11-28T06:53:45.736Z,92.01
2022-11-28T06:54:49.441Z,92.06
2022-11-28T06:55:52.090Z,91.96
2022-11-28T06:56:55.828Z,92.11
2022-11-28T06:57:58.509Z,92.09
2022-11-28T06:59:03.711Z,91.98
2022-11-28T07:00:07.888Z,92.06
2022-11-28T07:01:13.507Z,92.29
2022-11-28T07:02:16.266Z,92.39
2022-11-28T07:03:20.088Z,92.12
2022-11-28T07:04:23.839Z,91.61
2022-11-28T07:05:27.972Z,92.04
2022-11-28T07:06:31.790Z,92.02
2022-11-28T07:07:45.651Z,92.12
2022-11-28T07:08:57.930Z,92.02
2022-11-28T07:10:00.672Z,91.73
2022-11-28T07:11:12.467Z,91.84
2022-11-28T07:12:15.226Z,91.83
2022-11-28T07:13:18.892Z,92.07
2022-11-28T07:14:24.266Z,91.96
2022-11-28T07:15:27.217Z,91.79
2022-11-28T07:16:32.925Z,91.97
2022-11-28T07:17:36.912Z,92.17
2022-11-28T07:18:40.578Z,92.32
2022-11-28T07:19:44.530Z,92.11
2022-11-28T07:20:48.027Z,92.16
2022-11-28T07:21:52.151Z,91.93
2022-11-28T07:22:55.842Z,92.50
2022-11-28T07:23:59.947Z,92.11
2022-11-28T07:25:02.609Z,92.19
2022-11-28T07:26:07.169Z,92.39
2022-11-28T07:27:10.838Z,92.30
2022-11-28T07:28:13.650Z,91.97
2022-11-28T07:29:19.605Z,91.99
2022-11-28T07:30:23.720Z,91.75
2022-11-28T07:31:32.429Z,92.10
2022-11-28T07:32:36.539Z,91.86
2022-11-28T07:33:39.768Z,91.67
2022-11-28T07:34:46.656Z,91.66
2022-11-28T07:35:52.567Z,91.91
2022-11-28T07:36:56.316Z,91.57
2022-11-28T07:37:59.007Z,91.61
2022-11-28T07:39:04.898Z,91.66
2022-11-28T07:40:08.609Z,91.97
2022-11-28T07:41:14.489Z,92.00
2022-11-28T07:42:17.760Z,91.81
2022-11-28T07:43:33.823Z,91.85
2022-11-28T07:44:37.699Z,91.75
2022-11-28T07:46:00.015Z,91.49
2022-11-28T07:47:05.062Z,91.85
2022-11-28T07:48:07.998Z,91.90
2022-11-28T07:49:12.290Z,91.50
2022-11-28T07:50:14.944Z,91.76
2022-11-28T07:51:20.471Z,91.51
2022-11-28T07:52:24.232Z,91.76
2022-11-28T07:53:27.141Z,91.38
2022-11-28T07:54:30.951Z,91.63
2022-11-28T07:55:35.823Z,91.57
2022-11-28T07:57:10.718Z,91.49
2022-11-28T07:58:04.798Z,91.21
2022-11-28T07:59:07.980Z,91.29
2022-11-28T08:00:12.746Z,91.39
2022-11-28T08:01:20.228Z,91.49
2022-11-28T08:02:22.951Z,91.13
2022-11-28T08:03:26.719Z,91.14
2022-11-28T08:04:29.521Z,91.35
2022-11-28T08:05:33.467Z,91.21
2022-11-28T08:06:39.430Z,91.13
2022-11-28T08:07:42.184Z,91.36
2022-11-28T08:08:47.313Z,91.68
2022-11-28T08:09:51.080Z,91.51
2022-11-28T08:10:58.179Z,91.56
2022-11-28T08:12:01.888Z,91.66
2022-11-28T08:13:04.725Z,91.86
2022-11-28T08:14:08.649Z,91.77
2022-11-28T08:15:11.976Z,91.99
2022-11-28T08:16:18.439Z,92.13
2022-11-28T08:17:21.299Z,92.12
2022-11-28T08:18:25.266Z,91.90
2022-11-28T08:19:33.705Z,91.99
2022-11-28T08:20:39.040Z,92.15
2022-11-28T08:21:42.779Z,91.99
2022-11-28T08:22:45.459Z,91.85
2022-11-28T08:23:49.237Z,91.77
2022-11-28T08:24:52.918Z,91.95
2022-11-28T08:25:56.010Z,91.80
2022-11-28T08:26:59.760Z,91.64
2022-11-28T08:28:02.549Z,91.31
2022-11-28T08:29:06.604Z,91.45
2022-11-28T08:30:10.601Z,91.25
2022-11-28T08:31:15.911Z,90.80
2022-11-28T08:32:20.601Z,90.73
2022-11-28T08:33:24.782Z,90.70
2022-11-28T08:34:28.557Z,90.74
2022-11-28T08:35:32.278Z,90.73
2022-11-28T08:36:36.156Z,90.91
2022-11-28T08:37:40.349Z,90.68
2022-11-28T08:38:57.823Z,90.59
2022-11-28T08:40:10.718Z,90.58
2022-11-28T08:41:16.289Z,90.61
2022-11-28T08:42:20.028Z,90.56
2022-11-28T08:43:23.748Z,90.41
2022-11-28T08:44:30.290Z,90.55
2022-11-28T08:45:33.368Z,90.46
2022-11-28T08:46:37.207Z,90.16
2022-11-28T08:47:41.299Z,89.97
2022-11-28T08:48:45.581Z,89.81
2022-11-28T08:49:49.308Z,90.02
2022-11-28T08:50:52.180Z,90.00
2022-11-28T08:51:55.900Z,89.77
2022-11-28T08:53:01.897Z,89.52
2022-11-28T08:54:11.242Z,89.18
2022-11-28T08:55:14.924Z,89.37
2022-11-28T08:56:17.630Z,89.18
2022-11-28T08:57:21.408Z,89.25
2022-11-28T08:58:24.257Z,89.12
2022-11-28T08:59:28.205Z,88.79
2022-11-28T09:00:32.125Z,88.52
2022-11-28T09:01:35.973Z,88.47
2022-11-28T09:02:39.750Z,88.52
2022-11-28T09:03:43.958Z,88.36
2022-11-28T09:04:47.789Z,88.30
2022-11-28T09:05:51.898Z,87.85
2022-11-28T09:06:55.689Z,87.71
2022-11-28T09:07:58.836Z,88.00
2022-11-28T09:09:03.201Z,87.73
2022-11-28T09:10:08.708Z,86.99
2022-11-28T09:11:13.229Z,87.20
2022-11-28T09:12:16.999Z,87.58
2022-11-28T09:13:20.839Z,87.24
2022-11-28T09:14:24.579Z,87.31
2022-11-28T09:15:27.991Z,87.38
2022-11-28T09:16:31.694Z,87.15
2022-11-28T09:17:34.516Z,87.01
2022-11-28T09:18:38.274Z,86.65
2022-11-28T09:19:44.035Z,86.53
2022-11-28T09:20:46.998Z,86.76
2022-11-28T09:21:56.165Z,86.66
2022-11-28T09:23:01.507Z,86.14
2022-11-28T09:24:06.656Z,86.51
2022-11-28T09:25:09.784Z,86.40
2022-11-28T09:26:15.123Z,86.52
2022-11-28T09:27:19.531Z,86.22
2022-11-28T09:28:23.571Z,86.17
2022-11-28T09:29:28.523Z,86.13
2022-11-28T09:30:31.295Z,86.33
2022-11-28T09:31:35.198Z,86.11
2022-11-28T09:32:37.999Z,86.04
2022-11-28T09:33:42.179Z,86.04
2022-11-28T09:34:47.878Z,86.43
2022-11-28T09:35:50.754Z,85.86
2022-11-28T09:36:54.587Z,85.99
2022-11-28T09:37:58.291Z,86.01
2022-11-28T09:39:02.671Z,85.92
2022-11-28T09:40:15.188Z,86.09
2022-11-28T09:41:55.781Z,85.46
2022-11-28T09:43:01.218Z,85.32
2022-11-28T09:44:10.648Z,85.93
2022-11-28T09:45:17.217Z,85.95
2022-11-28T09:46:26.281Z,85.72
2022-11-28T09:47:31.339Z,86.13
2022-11-28T09:48:38.247Z,85.82
2022-11-28T09:49:47.384Z,85.95
2022-11-28T09:50:55.909Z,85.96
2022-11-28T09:52:02.159Z,86.13
2022-11-28T09:53:16.697Z,86.24
2022-11-28T09:54:23.329Z,86.49
2022-11-28T09:55:33.806Z,86.12
2022-11-28T09:56:36.661Z,86.43
2022-11-28T09:57:42.734Z,86.38
2022-11-28T09:58:49.311Z,85.59
2022-11-28T09:59:53.048Z,85.66
2022-11-28T10:01:02.187Z,85.73
2022-11-28T10:02:18.258Z,86.27
2022-11-28T10:03:36.003Z,85.57
2022-11-28T10:04:43.580Z,85.59
2022-11-28T10:05:54.617Z,85.36
2022-11-28T10:07:06.882Z,85.38
2022-11-28T10:08:23.976Z,85.41
2022-11-28T10:09:35.246Z,84.67
2022-11-28T10:10:44.410Z,85.33
2022-11-28T10:11:56.516Z,85.76
2022-11-28T10:13:04.966Z,85.06
2022-11-28T10:14:27.016Z,85.54
2022-11-28T10:15:41.958Z,85.14
2022-11-28T10:16:53.405Z,85.66
2022-11-28T10:18:06.284Z,85.46
2022-11-28T10:19:31.532Z,85.83
2022-11-28T10:20:39.800Z,85.34
2022-11-28T10:21:47.716Z,85.16
2022-11-28T10:22:53.486Z,84.33
2022-11-28T10:24:00.105Z,84.59
2022-11-28T10:25:07.549Z,84.99
2022-11-28T10:26:18.144Z,84.70
2022-11-28T10:27:26.781Z,84.53
2022-11-28T10:28:33.860Z,84.28
2022-11-28T10:29:47.061Z,82.98
2022-11-28T10:30:56.338Z,83.92
2022-11-28T10:32:03.099Z,83.43
2022-11-28T10:33:12.749Z,83.97
2022-11-28T10:34:18.799Z,83.74
2022-11-28T10:35:28.684Z,83.38
2022-11-28T10:36:36.164Z,83.77
2022-11-28T10:37:42.146Z,83.44
2022-11-28T10:38:45.817Z,83.05
2022-11-28T10:39:49.216Z,84.03
2022-11-28T10:41:00.075Z,83.53
2022-11-28T10:42:14.045Z,83.42
2022-11-28T10:43:29.096Z,83.40
2022-11-28T10:44:38.272Z,83.33
2022-11-28T10:45:48.446Z,83.81
2022-11-28T10:46:59.019Z,83.56
2022-11-28T10:49:52.249Z,82.58
2022-11-28T10:51:01.960Z,82.88
2022-11-28T10:52:12.091Z,81.83
2022-11-28T10:53:26.376Z,82.33
2022-11-28T10:54:47.224Z,82.88
2022-11-28T10:56:00.639Z,82.75
2022-11-28T10:57:07.779Z,82.24
2022-11-28T10:58:15.589Z,82.88
2022-11-28T10:59:28.910Z,81.87
2022-11-28T11:00:33.027Z,81.73
2022-11-28T11:01:39.385Z,82.14
2022-11-28T11:02:45.099Z,81.81
2022-11-28T11:03:50.061Z,81.92
2022-11-28T11:04:54.324Z,81.93
2022-11-28T11:05:58.145Z,81.15
2022-11-28T11:07:20.209Z,81.03
2022-11-28T11:08:29.581Z,81.74
2022-11-28T11:09:32.259Z,81.79
2022-11-28T11:10:39.180Z,81.91
2022-11-28T11:11:48.601Z,81.61
2022-11-28T11:12:52.589Z,80.96
2022-11-28T11:14:01.703Z,79.94
2022-11-28T11:15:18.021Z,79.91
2022-11-28T11:16:20.781Z,79.69
2022-11-28T11:17:34.355Z,79.92
2022-11-28T11:18:53.470Z,79.88
2022-11-28T11:19:56.918Z,79.17
2022-11-28T11:21:12.054Z,79.38
2022-11-28T11:22:20.355Z,79.53
2022-11-28T11:23:24.855Z,79.12
2022-11-28T11:24:30.205Z,78.80
2022-11-28T11:25:34.204Z,78.68
2022-11-28T11:26:42.136Z,78.91
2022-11-28T11:27:50.951Z,78.99
2022-11-28T11:28:54.893Z,78.74
2022-11-28T11:29:57.708Z,78.03
2022-11-28T11:31:02.321Z,79.19
2022-11-28T11:32:07.453Z,79.34
2022-11-28T11:33:17.583Z,79.29
2022-11-28T11:34:23.149Z,79.32
2022-11-28T11:35:28.322Z,78.68
2022-11-28T11:36:32.597Z,79.04
2022-11-28T11:37:38.506Z,78.61
2022-11-28T11:38:42.405Z,78.18
2022-11-28T11:39:50.610Z,78.91
2022-11-28T11:40:54.377Z,78.63
2022-11-28T11:42:12.750Z,77.73
2022-11-28T11:43:28.462Z,77.59
2022-11-28T11:44:35.485Z,78.17
2022-11-28T11:45:39.718Z,77.55
2022-11-28T11:46:52.557Z,77.64
2022-11-28T11:47:56.721Z,77.42
2022-11-28T11:48:59.634Z,78.02
2022-11-28T11:50:06.214Z,77.16
2022-11-28T11:51:23.249Z,77.20
2022-11-28T11:52:27.819Z,77.21
2022-11-28T11:53:31.621Z,78.21
2022-11-28T11:54:35.385Z,77.99
2022-11-28T11:55:46.250Z,77.48
2022-11-28T11:57:00.738Z,77.36
2022-11-28T11:58:17.927Z,78.12
2022-11-28T11:59:24.700Z,77.41
2022-11-28T12:00:32.092Z,78.30
2022-11-28T12:01:36.923Z,78.04
2022-11-28T12:02:45.771Z,77.56
2022-11-28T12:03:54.950Z,77.75
2022-11-28T12:05:04.147Z,77.56
2022-11-28T12:06:14.965Z,77.84
2022-11-28T12:07:26.775Z,77.10
2022-11-28T12:08:35.282Z,76.96
2022-11-28T12:09:43.875Z,77.17
2022-11-28T12:10:53.059Z,77.53
2022-11-28T12:12:01.029Z,77.00
2022-11-28T12:13:05.133Z,77.47
2022-11-28T12:14:32.999Z,77.12
2022-11-28T12:15:48.113Z,77.35
2022-11-28T12:16:55.791Z,77.33
2022-11-28T12:18:09.678Z,77.73
2022-11-28T12:19:22.816Z,77.03
2022-11-28T12:20:35.299Z,76.94
2022-11-28T12:21:42.707Z,77.24
2022-11-28T12:22:50.710Z,77.77
2022-11-28T12:24:03.624Z,77.62
2022-11-28T12:25:13.618Z,76.92
2022-11-28T12:26:22.420Z,77.02
2022-11-28T12:27:33.038Z,76.57
2022-11-28T12:28:47.341Z,77.39
2022-11-28T12:29:56.118Z,76.90
2022-11-28T12:31:05.326Z,76.99
2022-11-28T12:32:23.918Z,76.39
2022-11-28T12:33:41.451Z,76.83
2022-11-28T12:34:55.837Z,77.04
2022-11-28T12:36:12.358Z,77.05
2022-11-28T12:37:33.096Z,76.76
2022-11-28T12:39:01.808Z,76.43
2022-11-28T12:40:15.140Z,76.07
2022-11-28T12:41:32.749Z,75.77
2022-11-28T12:42:47.368Z,76.30
2022-11-28T12:43:58.499Z,75.92
2022-11-28T12:45:19.978Z,76.04
2022-11-28T12:46:30.102Z,75.97
2022-11-28T12:47:41.066Z,76.38
2022-11-28T12:48:54.763Z,76.49
2022-11-28T12:50:01.287Z,76.44
2022-11-28T12:51:13.860Z,76.20
2022-11-28T12:52:24.209Z,75.60
2022-11-28T12:53:41.002Z,76.45
2022-11-28T12:55:02.433Z,76.50
2022-11-28T12:56:23.129Z,75.84
2022-11-28T12:57:34.494Z,75.45
2022-11-28T12:58:42.033Z,75.68
2022-11-28T12:59:49.721Z,75.45
2022-11-28T13:01:00.562Z,75.92
2022-11-28T13:02:20.470Z,76.10
2022-11-28T13:03:35.968Z,75.68
2022-11-28T13:05:04.047Z,75.73
2022-11-28T13:06:16.674Z,75.29
2022-11-28T13:07:27.427Z,75.27
2022-11-28T13:08:58.172Z,75.51
2022-11-28T13:10:06.165Z,75.60
2022-11-28T13:11:18.577Z,75.34
2022-11-28T13:12:26.049Z,75.86
2022-11-28T13:13:34.284Z,75.75
2022-11-28T13:14:43.770Z,75.49
2022-11-28T13:15:58.747Z,75.99
2022-11-28T13:17:12.687Z,75.79
2022-11-28T13:18:25.688Z,76.08
2022-11-28T13:19:37.462Z,76.17
2022-11-28T13:20:46.557Z,75.52
2022-11-28T13:21:55.210Z,75.43
2022-11-28T13:23:05.599Z,75.65
2022-11-28T13:24:18.349Z,75.70
2022-11-28T13:25:28.389Z,75.26
2022-11-28T13:26:43.671Z,75.91
2022-11-28T13:27:54.658Z,75.76
2022-11-28T13:29:03.641Z,76.17
2022-11-28T13:30:17.653Z,76.21
2022-11-28T13:31:25.864Z,76.06
2022-11-28T13:32:35.726Z,75.60
2022-11-28T13:33:49.439Z,76.17
2022-11-28T13:34:53.599Z,76.25
2022-11-28T13:35:58.932Z,75.77
2022-11-28T13:38:39.294Z,75.57
2022-11-28T13:39:52.519Z,76.05
2022-11-28T13:40:59.819Z,76.17
2022-11-28T13:43:02.157Z,75.76
2022-11-28T13:43:42.179Z,74.95
2022-11-28T13:44:52.172Z,75.62
2022-11-28T13:45:56.361Z,75.39
2022-11-28T13:47:14.827Z,75.28
2022-11-28T13:50:40.908Z,75.11
2022-11-28T13:51:44.657Z,75.07
2022-11-28T13:52:58.703Z,75.08
2022-11-28T13:54:49.010Z,74.44
2022-11-28T13:55:53.385Z,74.71
2022-11-28T13:57:07.067Z,74.39
2022-11-28T13:58:16.900Z,74.10
2022-11-28T13:59:22.270Z,73.96
2022-11-28T14:00:27.907Z,74.25
2022-11-28T14:01:32.272Z,74.33
2022-11-28T14:02:42.099Z,74.20
2022-11-28T14:03:49.302Z,73.88
2022-11-28T14:04:52.053Z,73.81
2022-11-28T14:05:57.561Z,73.95
2022-11-28T14:07:03.841Z,74.26
2022-11-28T14:08:08.604Z,74.45
2022-11-28T14:09:26.031Z,73.89
2022-11-28T14:10:56.516Z,73.55
2022-11-28T14:12:09.920Z,73.83
2022-11-28T14:13:26.699Z,73.05
2022-11-28T14:14:55.381Z,73.74
2022-11-28T14:16:08.843Z,72.96
2022-11-28T14:17:34.380Z,73.57
2022-11-28T14:18:57.574Z,73.54
2022-11-28T14:20:14.515Z,73.23
2022-11-28T14:21:26.818Z,73.75
2022-11-28T14:22:39.380Z,73.15
2022-11-28T14:23:45.968Z,73.85
2022-11-28T14:24:55.897Z,73.74
2022-11-28T14:26:00.390Z,74.22
2022-11-28T14:27:08.241Z,73.90
2022-11-28T14:28:20.489Z,74.42
2022-11-28T14:29:28.117Z,74.85
2022-11-28T14:30:34.037Z,74.33
2022-11-28T14:31:55.212Z,74.68
2022-11-28T14:33:07.159Z,74.80
2022-11-28T14:34:38.212Z,75.16